F/V Mare Liberum — FVHW — position and weather

sailwx.info

Track history (hours):
 
Tides and Currents Weather Stations Pressure Air Temp Water Temp Dewpoint Dewpoint Depression Visibility Wind Speed Wind Dir Waves Ship Positions

F/V Mare Liberum

Last reported at 2017-Nov-24 17:43 UTC. Time now 2017-Nov-24 18:31 UTC.
Position N 46°09' W 001°50'.

Length 21 m.

Type: Fishing. MMSI: 227426000.

Date/timePositionNaut miles runAvg speedWind from/ knotsBaromVisibWave heightAir tempDewpointWater temp
2017-Nov-24 17:43N 46°09' W 001°50'0 0.1
2017-Nov-24 17:30N 46°09' W 001°50'0 0.0
2017-Nov-24 16:58N 46°09' W 001°50'0 0.0
2017-Nov-24 16:30N 46°09' W 001°50'0 0.0
2017-Nov-24 15:59N 46°09' W 001°50'0 0.0
2017-Nov-24 15:29N 46°09' W 001°50'0 0.0
2017-Nov-24 15:00N 46°09' W 001°50'0 0.0
2017-Nov-24 14:27N 46°09' W 001°50'0 0.0
2017-Nov-24 13:52N 46°09' W 001°50'0 0.5
2017-Nov-24 13:30N 46°09' W 001°50'1 2.5
2017-Nov-24 12:59N 46°10' W 001°50'1 2.4
2017-Nov-24 12:28N 46°09' W 001°49'1 1.5
2017-Nov-24 11:37N 46°11' W 001°50'0 0.4
2017-Nov-24 10:54N 46°11' W 001°50'4 9.3
2017-Nov-24 10:30N 46°14' W 001°51'5 9.3
2017-Nov-24 10:00N 46°18' W 001°54'5 9.2
2017-Nov-24 09:30N 46°23' W 001°57'5 9.5
2017-Nov-24 09:00N 46°27' W 002°01'5 9.5
2017-Nov-24 08:30N 46°31' W 002°04'5 9.4
2017-Nov-24 08:00N 46°35' W 002°07'5 9.3
2017-Nov-24 07:30N 46°39' W 002°10'23 9.0
2017-Nov-24 05:00N 47°00' W 002°22'3 5.8
2017-Nov-24 04:30N 47°02' W 002°18'0 0.0
2017-Nov-24 03:21N 47°01' W 002°18'0 0.0
2017-Nov-24 02:45N 47°01' W 002°18'0 0.0
2017-Nov-24 02:29N 47°01' W 002°18'0 0.0
2017-Nov-24 02:00N 47°01' W 002°18'0 0.0
2017-Nov-24 01:30N 47°01' W 002°18'0 0.0
2017-Nov-24 00:58N 47°01' W 002°18'0 0.0
2017-Nov-24 00:30N 47°01' W 002°18'0 0.0
2017-Nov-24 00:00N 47°01' W 002°18'0 0.0
2017-Nov-23 23:27N 47°01' W 002°18'0 0.0
2017-Nov-23 22:58N 47°01' W 002°18'0 0.0
2017-Nov-23 22:29N 47°01' W 002°18'0 0.0
2017-Nov-23 22:00N 47°01' W 002°18'0 0.0
2017-Nov-23 21:30N 47°01' W 002°18'0 0.0
2017-Nov-23 21:00N 47°01' W 002°18'0 0.0
2017-Nov-23 20:30N 47°01' W 002°18'0 0.0
2017-Nov-23 20:00N 47°01' W 002°18'0 0.0
2017-Nov-23 19:23N 47°01' W 002°18'0 0.0
2017-Nov-23 18:56N 47°01' W 002°18'0 0.0
2017-Nov-23 18:28N 47°01' W 002°18'0 0.0
2017-Nov-23 18:00N 47°01' W 002°18'0 0.0
2017-Nov-23 17:25N 47°01' W 002°18'0 0.0
2017-Nov-23 16:57N 47°01' W 002°18'0 0.0
2017-Nov-23 16:30N 47°01' W 002°18'0 0.0
2017-Nov-23 15:57N 47°01' W 002°18'0 0.0
2017-Nov-23 09:17N 47°01' W 002°18'0 0.0
2017-Nov-23 08:59N 47°01' W 002°18'0 0.0
2017-Nov-23 08:29N 47°01' W 002°18'0 0.0
2017-Nov-23 08:00N 47°01' W 002°18'0 0.0
2017-Nov-23 07:29N 47°01' W 002°18'0 0.0
2017-Nov-23 06:58N 47°01' W 002°18'0 0.0
2017-Nov-23 06:22N 47°01' W 002°18'0 0.0
2017-Nov-23 05:02N 47°01' W 002°18'0 0.0
2017-Nov-23 04:37N 47°01' W 002°18'0 0.0
2017-Nov-23 03:57N 47°01' W 002°18'0 0.0
2017-Nov-23 03:23N 47°01' W 002°18'0 0.0
2017-Nov-23 02:56N 47°01' W 002°18'0 0.0
2017-Nov-23 02:30N 47°01' W 002°18'0 0.0
2017-Nov-23 01:59N 47°01' W 002°18'0 0.0
2017-Nov-23 01:27N 47°01' W 002°18'0 0.0
2017-Nov-23 01:00N 47°01' W 002°18'0 0.0
2017-Nov-23 00:30N 47°01' W 002°18'0 0.0
2017-Nov-23 00:00N 47°01' W 002°18'0 0.0
2017-Nov-22 23:30N 47°01' W 002°18'0 0.0
2017-Nov-22 23:00N 47°01' W 002°18'0 0.0
2017-Nov-22 22:30N 47°01' W 002°18'0 0.0
2017-Nov-22 22:00N 47°01' W 002°18'0 0.0
2017-Nov-22 21:30N 47°01' W 002°18'0 0.0
2017-Nov-22 21:00N 47°01' W 002°18'0 0.0
2017-Nov-22 20:30N 47°01' W 002°18'0 0.0
2017-Nov-22 20:00N 47°01' W 002°18'0 0.0
2017-Nov-22 19:30N 47°01' W 002°18'  
2017-Nov-19 23:39N 46°12' W 001°42'0 0.0
2017-Nov-19 23:22N 46°12' W 001°42'0 0.0
2017-Nov-19 22:59N 46°12' W 001°42'0 0.0
2017-Nov-19 22:30N 46°12' W 001°42'0 0.1
2017-Nov-19 20:21N 46°11' W 001°42'0 0.1
2017-Nov-19 20:00N 46°11' W 001°42'1 0.3
2017-Nov-19 17:03N 46°11' W 001°41'1 9.9
2017-Nov-19 17:00N 46°11' W 001°40'4 7.6
2017-Nov-19 16:27N 46°09' W 001°35'0 0.8
2017-Nov-19 15:57N 46°09' W 001°35'1 2.3
2017-Nov-19 15:30N 46°10' W 001°36'4 2.7
2017-Nov-19 14:04N 46°08' W 001°41'0 0.6
2017-Nov-19 13:37N 46°08' W 001°40'1 6.5
2017-Nov-19 13:26N 46°09' W 001°41'0 0.5
2017-Nov-19 12:54N 46°09' W 001°41'1 1.6
2017-Nov-19 12:21N 46°09' W 001°42'1 3.4
2017-Nov-19 12:00N 46°08' W 001°41'1 2.2
2017-Nov-19 11:30N 46°09' W 001°42'1 1.3
2017-Nov-19 10:51N 46°10' W 001°42'1 1.3
2017-Nov-19 10:27N 46°10' W 001°42'2 1.3
2017-Nov-19 09:12N 46°08' W 001°43'0 2.5
2017-Nov-19 09:00N 46°09' W 001°44'2 3.2
2017-Nov-19 08:24N 46°10' W 001°45'2 2.4
2017-Nov-19 07:38N 46°09' W 001°44'0 3.2
2017-Nov-19 07:29N 46°08' W 001°44'1 2.7
2017-Nov-19 07:00N 46°09' W 001°45'2 2.9
2017-Nov-19 06:19N 46°11' W 001°44'0 0.8
2017-Nov-19 06:00N 46°11' W 001°43'1 1.8
2017-Nov-19 05:26N 46°11' W 001°44'2 3.0
2017-Nov-19 04:47N 46°09' W 001°43'0 1.0
2017-Nov-19 04:30N 46°09' W 001°42'1 2.6
2017-Nov-19 04:00N 46°10' W 001°43'0 0.4
2017-Nov-19 03:17N 46°10' W 001°43'1 2.6
2017-Nov-19 03:00N 46°10' W 001°43'1 2.4
2017-Nov-19 02:30N 46°09' W 001°42'2 3.8
2017-Nov-19 02:00N 46°11' W 001°43'0 0.0
2017-Nov-19 01:30N 46°11' W 001°43'0 0.0
2017-Nov-19 01:00N 46°11' W 001°43'0 0.0
2017-Nov-19 00:30N 46°11' W 001°43'0 0.1
2017-Nov-18 23:59N 46°11' W 001°43'0 0.1
2017-Nov-18 23:30N 46°11' W 001°43'0 0.2
2017-Nov-18 23:00N 46°11' W 001°43'0 0.2
2017-Nov-18 22:30N 46°10' W 001°43'0 0.1
2017-Nov-18 22:00N 46°10' W 001°43'0 0.1
2017-Nov-18 21:30N 46°10' W 001°43'0 0.0
2017-Nov-18 21:00N 46°10' W 001°43'0 0.0
2017-Nov-18 20:28N 46°10' W 001°43'0 0.1
2017-Nov-18 20:00N 46°10' W 001°43'0 0.0
2017-Nov-18 19:30N 46°10' W 001°43'0 0.0
2017-Nov-18 18:42N 46°10' W 001°43'0 0.1
2017-Nov-18 18:27N 46°10' W 001°43'0 0.0
2017-Nov-18 17:58N 46°10' W 001°43'0 0.0
2017-Nov-18 17:23N 46°10' W 001°43'0 0.0
2017-Nov-18 17:00N 46°10' W 001°43'0 0.0
2017-Nov-18 16:30N 46°10' W 001°43'0 0.1
2017-Nov-18 16:00N 46°10' W 001°43'0 0.0
2017-Nov-18 15:30N 46°10' W 001°43'0 0.0
2017-Nov-18 15:00N 46°10' W 001°43'0 0.0
2017-Nov-18 14:29N 46°10' W 001°43'2 3.8
2017-Nov-18 13:58N 46°09' W 001°41'7 2.2
2017-Nov-18 10:54N 46°13' W 001°49'15 9.5
2017-Nov-18 09:20N 46°20' W 002°08'8 0.7
2017-Nov-17 21:48N 46°24' W 002°19'2 0.2
2017-Nov-17 10:32N 46°26' W 002°21'0 6.6
2017-Nov-17 10:30N 46°26' W 002°21'3 6.7
2017-Nov-17 09:59N 46°23' W 002°19'7 5.0
2017-Nov-17 08:40N 46°16' W 002°22'1 2.2
2017-Nov-17 08:15N 46°17' W 002°21'1 2.4
2017-Nov-17 07:46N 46°18' W 002°22'1 2.4
2017-Nov-17 07:30N 46°19' W 002°23'2 2.8
2017-Nov-17 06:41N 46°17' W 002°21'0 1.5
2017-Nov-17 06:30N 46°17' W 002°21'2 2.0
2017-Nov-17 05:41N 46°19' W 002°22'0 0.2
2017-Nov-17 02:49N 46°19' W 002°22'1 2.7
2017-Nov-17 02:30N 46°18' W 002°21'0 0.5
2017-Nov-17 01:31N 46°18' W 002°21'0 2.9
2017-Nov-17 01:29N 46°18' W 002°21'2 3.1
2017-Nov-17 00:58N 46°19' W 002°24'0 0.4
2017-Nov-17 00:28N 46°19' W 002°23'0 0.4
2017-Nov-17 00:00N 46°19' W 002°23'0 0.2
2017-Nov-16 23:30N 46°19' W 002°23'0 0.1
2017-Nov-16 23:00N 46°19' W 002°23'0 0.0
2017-Nov-16 22:30N 46°19' W 002°23'0 0.1
2017-Nov-16 21:16N 46°19' W 002°23'0 0.1
2017-Nov-16 20:59N 46°19' W 002°23'0 0.1
2017-Nov-16 18:30N 46°19' W 002°23'0 0.1
2017-Nov-16 17:49N 46°19' W 002°22'0 0.0
2017-Nov-16 17:09N 46°19' W 002°22'0 0.1
2017-Nov-16 17:00N 46°19' W 002°22'0 0.0
2017-Nov-16 16:07N 46°19' W 002°22'0 0.0
2017-Nov-16 15:59N 46°19' W 002°22'0 0.0
2017-Nov-16 15:22N 46°19' W 002°22'0 0.1
2017-Nov-16 11:24N 46°19' W 002°23'2 1.4
2017-Nov-16 10:05N 46°18' W 002°21'2 7.1
2017-Nov-16 09:50N 46°19' W 002°22'3 8.9
2017-Nov-16 09:28N 46°23' W 002°21'7 8.5
2017-Nov-16 08:41N 46°29' W 002°22'2 8.6
2017-Nov-16 08:25N 46°31' W 002°23'4 8.6
2017-Nov-16 08:00N 46°35' W 002°23'4 8.7
2017-Nov-16 07:30N 46°39' W 002°25'4 8.5
2017-Nov-16 07:00N 46°43' W 002°26'4 8.8
2017-Nov-16 06:30N 46°48' W 002°25'5 9.1
2017-Nov-16 06:00N 46°52' W 002°24'5 9.2
2017-Nov-16 05:30N 46°57' W 002°24'4 8.9
2017-Nov-16 05:00N 47°01' W 002°21'2 4.3
2017-Nov-16 04:30N 47°02' W 002°18'0 0.1
2017-Nov-16 04:00N 47°01' W 002°18'0 0.0
2017-Nov-16 03:27N 47°01' W 002°18'0 0.0
2017-Nov-16 03:00N 47°01' W 002°18'0 0.0
2017-Nov-16 02:30N 47°01' W 002°18'0 0.0
2017-Nov-16 02:00N 47°01' W 002°18'0 0.0
2017-Nov-16 01:30N 47°01' W 002°18'0 0.0
2017-Nov-16 01:00N 47°01' W 002°18'0 0.0
2017-Nov-16 00:30N 47°01' W 002°18'0 0.0
2017-Nov-16 00:00N 47°01' W 002°18'0 0.0
2017-Nov-15 23:30N 47°01' W 002°18'0 0.0
2017-Nov-15 23:00N 47°01' W 002°18'0 0.0
2017-Nov-15 22:28N 47°01' W 002°18'0 0.0
2017-Nov-15 22:00N 47°01' W 002°18'0 0.0
2017-Nov-15 21:30N 47°01' W 002°18'0 0.0
2017-Nov-15 20:57N 47°01' W 002°18'0 0.0
2017-Nov-15 20:30N 47°01' W 002°18'0 0.0
2017-Nov-15 20:00N 47°01' W 002°18'0 0.0
2017-Nov-15 19:30N 47°01' W 002°18'0 0.0
2017-Nov-15 18:58N 47°01' W 002°18'0 0.0
2017-Nov-15 18:30N 47°01' W 002°18'0 0.0
2017-Nov-15 17:58N 47°01' W 002°18'0 0.0
2017-Nov-15 17:30N 47°01' W 002°18'0 0.0
2017-Nov-15 16:59N 47°01' W 002°18'0 0.0
2017-Nov-15 16:30N 47°01' W 002°18'0 0.0
2017-Nov-15 16:00N 47°01' W 002°18'0 0.0
2017-Nov-15 15:30N 47°01' W 002°18'0 0.0
2017-Nov-15 15:00N 47°01' W 002°18'0 0.0
2017-Nov-15 14:30N 47°01' W 002°18'0 0.0
2017-Nov-15 14:00N 47°01' W 002°18'0 0.0
2017-Nov-15 13:30N 47°01' W 002°18'0 0.0
2017-Nov-15 12:59N 47°01' W 002°18'0 0.0
2017-Nov-15 12:20N 47°01' W 002°18'0 0.0
2017-Nov-15 12:00N 47°01' W 002°18'0 0.0
2017-Nov-15 11:28N 47°01' W 002°18'0 0.0
2017-Nov-15 11:00N 47°01' W 002°18'0 0.0
2017-Nov-15 10:30N 47°01' W 002°18'0 0.0
2017-Nov-15 10:00N 47°01' W 002°18'0 0.0
2017-Nov-15 09:29N 47°01' W 002°18'0 0.0
2017-Nov-15 08:59N 47°01' W 002°18'0 0.0
2017-Nov-15 08:30N 47°01' W 002°18'0 0.0
2017-Nov-15 08:00N 47°01' W 002°18'0 0.0
2017-Nov-15 07:30N 47°01' W 002°18'0 0.0
2017-Nov-15 07:00N 47°01' W 002°18'0 0.0
2017-Nov-15 06:30N 47°01' W 002°18'0 0.0
2017-Nov-15 06:00N 47°01' W 002°18'0 0.0
2017-Nov-15 05:30N 47°01' W 002°18'0 0.0
2017-Nov-15 05:00N 47°01' W 002°18'0 0.0
2017-Nov-15 04:29N 47°01' W 002°18'0 0.0
2017-Nov-15 04:00N 47°01' W 002°18'0 0.0
2017-Nov-15 03:30N 47°01' W 002°18'0 0.0
2017-Nov-15 03:00N 47°01' W 002°18'0 0.0
2017-Nov-15 02:30N 47°01' W 002°18'0 0.0
2017-Nov-15 02:00N 47°01' W 002°18'0 0.0
2017-Nov-15 01:30N 47°01' W 002°18'0 0.0
2017-Nov-15 01:00N 47°01' W 002°18'0 0.0
2017-Nov-15 00:30N 47°01' W 002°18'0 0.0
2017-Nov-15 00:00N 47°01' W 002°18'0 0.0
2017-Nov-14 23:28N 47°01' W 002°18'0 0.0
2017-Nov-14 23:00N 47°01' W 002°18'0 0.0
2017-Nov-14 22:30N 47°01' W 002°18'0 0.0
2017-Nov-14 22:00N 47°01' W 002°18'0 0.0
2017-Nov-14 21:30N 47°01' W 002°18'0 0.0
2017-Nov-14 21:00N 47°01' W 002°18'0 0.0
2017-Nov-14 20:30N 47°01' W 002°18'0 0.0
2017-Nov-14 20:00N 47°01' W 002°18'0 0.0
2017-Nov-14 19:30N 47°01' W 002°18'0 0.0
2017-Nov-14 18:59N 47°01' W 002°18'0 0.0
2017-Nov-14 18:29N 47°01' W 002°18'0 0.0
2017-Nov-14 18:00N 47°01' W 002°18'  
Track history (hours):
 
Tides and Currents Weather Stations Pressure Air Temp Water Temp Dewpoint Dewpoint Depression Visibility Wind Speed Wind Dir Waves Ship Positions

F/V Mare Liberum

Last reported at 2017-Nov-24 17:43 UTC. Time now 2017-Nov-24 18:31 UTC.
Position N 46°09' W 001°50'.

Length 21 m.

Type: Fishing. MMSI: 227426000.

Date/timePositionNaut miles runAvg speedWind from/ knotsBaromVisibWave heightAir tempDewpointWater temp
2017-Nov-24 17:43N 46°09' W 001°50'0 0.1
2017-Nov-24 17:30N 46°09' W 001°50'0 0.0
2017-Nov-24 16:58N 46°09' W 001°50'0 0.0
2017-Nov-24 16:30N 46°09' W 001°50'0 0.0
2017-Nov-24 15:59N 46°09' W 001°50'0 0.0
2017-Nov-24 15:29N 46°09' W 001°50'0 0.0
2017-Nov-24 15:00N 46°09' W 001°50'0 0.0
2017-Nov-24 14:27N 46°09' W 001°50'0 0.0
2017-Nov-24 13:52N 46°09' W 001°50'0 0.5
2017-Nov-24 13:30N 46°09' W 001°50'1 2.5
2017-Nov-24 12:59N 46°10' W 001°50'1 2.4
2017-Nov-24 12:28N 46°09' W 001°49'1 1.5
2017-Nov-24 11:37N 46°11' W 001°50'0 0.4
2017-Nov-24 10:54N 46°11' W 001°50'4 9.3
2017-Nov-24 10:30N 46°14' W 001°51'5 9.3
2017-Nov-24 10:00N 46°18' W 001°54'5 9.2
2017-Nov-24 09:30N 46°23' W 001°57'5 9.5
2017-Nov-24 09:00N 46°27' W 002°01'5 9.5
2017-Nov-24 08:30N 46°31' W 002°04'5 9.4
2017-Nov-24 08:00N 46°35' W 002°07'5 9.3
2017-Nov-24 07:30N 46°39' W 002°10'23 9.0
2017-Nov-24 05:00N 47°00' W 002°22'3 5.8
2017-Nov-24 04:30N 47°02' W 002°18'0 0.0
2017-Nov-24 03:21N 47°01' W 002°18'0 0.0
2017-Nov-24 02:45N 47°01' W 002°18'0 0.0
2017-Nov-24 02:29N 47°01' W 002°18'0 0.0
2017-Nov-24 02:00N 47°01' W 002°18'0 0.0
2017-Nov-24 01:30N 47°01' W 002°18'0 0.0
2017-Nov-24 00:58N 47°01' W 002°18'0 0.0
2017-Nov-24 00:30N 47°01' W 002°18'0 0.0
2017-Nov-24 00:00N 47°01' W 002°18'0 0.0
2017-Nov-23 23:27N 47°01' W 002°18'0 0.0
2017-Nov-23 22:58N 47°01' W 002°18'0 0.0
2017-Nov-23 22:29N 47°01' W 002°18'0 0.0
2017-Nov-23 22:00N 47°01' W 002°18'0 0.0
2017-Nov-23 21:30N 47°01' W 002°18'0 0.0
2017-Nov-23 21:00N 47°01' W 002°18'0 0.0
2017-Nov-23 20:30N 47°01' W 002°18'0 0.0
2017-Nov-23 20:00N 47°01' W 002°18'0 0.0
2017-Nov-23 19:23N 47°01' W 002°18'0 0.0
2017-Nov-23 18:56N 47°01' W 002°18'0 0.0
2017-Nov-23 18:28N 47°01' W 002°18'0 0.0
2017-Nov-23 18:00N 47°01' W 002°18'0 0.0
2017-Nov-23 17:25N 47°01' W 002°18'0 0.0
2017-Nov-23 16:57N 47°01' W 002°18'0 0.0
2017-Nov-23 16:30N 47°01' W 002°18'0 0.0
2017-Nov-23 15:57N 47°01' W 002°18'0 0.0
2017-Nov-23 09:17N 47°01' W 002°18'0 0.0
2017-Nov-23 08:59N 47°01' W 002°18'0 0.0
2017-Nov-23 08:29N 47°01' W 002°18'0 0.0
2017-Nov-23 08:00N 47°01' W 002°18'0 0.0
2017-Nov-23 07:29N 47°01' W 002°18'0 0.0
2017-Nov-23 06:58N 47°01' W 002°18'0 0.0
2017-Nov-23 06:22N 47°01' W 002°18'0 0.0
2017-Nov-23 05:02N 47°01' W 002°18'0 0.0
2017-Nov-23 04:37N 47°01' W 002°18'0 0.0
2017-Nov-23 03:57N 47°01' W 002°18'0 0.0
2017-Nov-23 03:23N 47°01' W 002°18'0 0.0
2017-Nov-23 02:56N 47°01' W 002°18'0 0.0
2017-Nov-23 02:30N 47°01' W 002°18'0 0.0
2017-Nov-23 01:59N 47°01' W 002°18'0 0.0
2017-Nov-23 01:27N 47°01' W 002°18'0 0.0
2017-Nov-23 01:00N 47°01' W 002°18'0 0.0
2017-Nov-23 00:30N 47°01' W 002°18'0 0.0
2017-Nov-23 00:00N 47°01' W 002°18'0 0.0
2017-Nov-22 23:30N 47°01' W 002°18'0 0.0
2017-Nov-22 23:00N 47°01' W 002°18'0 0.0
2017-Nov-22 22:30N 47°01' W 002°18'0 0.0
2017-Nov-22 22:00N 47°01' W 002°18'0 0.0
2017-Nov-22 21:30N 47°01' W 002°18'0 0.0
2017-Nov-22 21:00N 47°01' W 002°18'0 0.0
2017-Nov-22 20:30N 47°01' W 002°18'0 0.0
2017-Nov-22 20:00N 47°01' W 002°18'0 0.0
2017-Nov-22 19:30N 47°01' W 002°18'  
2017-Nov-19 23:39N 46°12' W 001°42'0 0.0
2017-Nov-19 23:22N 46°12' W 001°42'0 0.0
2017-Nov-19 22:59N 46°12' W 001°42'0 0.0
2017-Nov-19 22:30N 46°12' W 001°42'0 0.1
2017-Nov-19 20:21N 46°11' W 001°42'0 0.1
2017-Nov-19 20:00N 46°11' W 001°42'1 0.3
2017-Nov-19 17:03N 46°11' W 001°41'1 9.9
2017-Nov-19 17:00N 46°11' W 001°40'4 7.6
2017-Nov-19 16:27N 46°09' W 001°35'0 0.8
2017-Nov-19 15:57N 46°09' W 001°35'1 2.3
2017-Nov-19 15:30N 46°10' W 001°36'4 2.7
2017-Nov-19 14:04N 46°08' W 001°41'0 0.6
2017-Nov-19 13:37N 46°08' W 001°40'1 6.5
2017-Nov-19 13:26N 46°09' W 001°41'0 0.5
2017-Nov-19 12:54N 46°09' W 001°41'1 1.6
2017-Nov-19 12:21N 46°09' W 001°42'1 3.4
2017-Nov-19 12:00N 46°08' W 001°41'1 2.2
2017-Nov-19 11:30N 46°09' W 001°42'1 1.3
2017-Nov-19 10:51N 46°10' W 001°42'1 1.3
2017-Nov-19 10:27N 46°10' W 001°42'2 1.3
2017-Nov-19 09:12N 46°08' W 001°43'0 2.5
2017-Nov-19 09:00N 46°09' W 001°44'2 3.2
2017-Nov-19 08:24N 46°10' W 001°45'2 2.4
2017-Nov-19 07:38N 46°09' W 001°44'0 3.2
2017-Nov-19 07:29N 46°08' W 001°44'1 2.7
2017-Nov-19 07:00N 46°09' W 001°45'2 2.9
2017-Nov-19 06:19N 46°11' W 001°44'0 0.8
2017-Nov-19 06:00N 46°11' W 001°43'1 1.8
2017-Nov-19 05:26N 46°11' W 001°44'2 3.0
2017-Nov-19 04:47N 46°09' W 001°43'0 1.0
2017-Nov-19 04:30N 46°09' W 001°42'1 2.6
2017-Nov-19 04:00N 46°10' W 001°43'0 0.4
2017-Nov-19 03:17N 46°10' W 001°43'1 2.6
2017-Nov-19 03:00N 46°10' W 001°43'1 2.4
2017-Nov-19 02:30N 46°09' W 001°42'2 3.8
2017-Nov-19 02:00N 46°11' W 001°43'0 0.0
2017-Nov-19 01:30N 46°11' W 001°43'0 0.0
2017-Nov-19 01:00N 46°11' W 001°43'0 0.0
2017-Nov-19 00:30N 46°11' W 001°43'0 0.1
2017-Nov-18 23:59N 46°11' W 001°43'0 0.1
2017-Nov-18 23:30N 46°11' W 001°43'0 0.2
2017-Nov-18 23:00N 46°11' W 001°43'0 0.2
2017-Nov-18 22:30N 46°10' W 001°43'0 0.1
2017-Nov-18 22:00N 46°10' W 001°43'0 0.1
2017-Nov-18 21:30N 46°10' W 001°43'0 0.0
2017-Nov-18 21:00N 46°10' W 001°43'0 0.0
2017-Nov-18 20:28N 46°10' W 001°43'0 0.1
2017-Nov-18 20:00N 46°10' W 001°43'0 0.0
2017-Nov-18 19:30N 46°10' W 001°43'0 0.0
2017-Nov-18 18:42N 46°10' W 001°43'0 0.1
2017-Nov-18 18:27N 46°10' W 001°43'0 0.0
2017-Nov-18 17:58N 46°10' W 001°43'0 0.0
2017-Nov-18 17:23N 46°10' W 001°43'0 0.0
2017-Nov-18 17:00N 46°10' W 001°43'0 0.0
2017-Nov-18 16:30N 46°10' W 001°43'0 0.1
2017-Nov-18 16:00N 46°10' W 001°43'0 0.0
2017-Nov-18 15:30N 46°10' W 001°43'0 0.0
2017-Nov-18 15:00N 46°10' W 001°43'0 0.0
2017-Nov-18 14:29N 46°10' W 001°43'2 3.8
2017-Nov-18 13:58N 46°09' W 001°41'7 2.2
2017-Nov-18 10:54N 46°13' W 001°49'15 9.5
2017-Nov-18 09:20N 46°20' W 002°08'8 0.7
2017-Nov-17 21:48N 46°24' W 002°19'2 0.2
2017-Nov-17 10:32N 46°26' W 002°21'0 6.6
2017-Nov-17 10:30N 46°26' W 002°21'3 6.7
2017-Nov-17 09:59N 46°23' W 002°19'7 5.0
2017-Nov-17 08:40N 46°16' W 002°22'1 2.2
2017-Nov-17 08:15N 46°17' W 002°21'1 2.4
2017-Nov-17 07:46N 46°18' W 002°22'1 2.4
2017-Nov-17 07:30N 46°19' W 002°23'2 2.8
2017-Nov-17 06:41N 46°17' W 002°21'0 1.5
2017-Nov-17 06:30N 46°17' W 002°21'2 2.0
2017-Nov-17 05:41N 46°19' W 002°22'0 0.2
2017-Nov-17 02:49N 46°19' W 002°22'1 2.7
2017-Nov-17 02:30N 46°18' W 002°21'0 0.5
2017-Nov-17 01:31N 46°18' W 002°21'0 2.9
2017-Nov-17 01:29N 46°18' W 002°21'2 3.1
2017-Nov-17 00:58N 46°19' W 002°24'0 0.4
2017-Nov-17 00:28N 46°19' W 002°23'0 0.4
2017-Nov-17 00:00N 46°19' W 002°23'0 0.2
2017-Nov-16 23:30N 46°19' W 002°23'0 0.1
2017-Nov-16 23:00N 46°19' W 002°23'0 0.0
2017-Nov-16 22:30N 46°19' W 002°23'0 0.1
2017-Nov-16 21:16N 46°19' W 002°23'0 0.1
2017-Nov-16 20:59N 46°19' W 002°23'0 0.1
2017-Nov-16 18:30N 46°19' W 002°23'0 0.1
2017-Nov-16 17:49N 46°19' W 002°22'0 0.0
2017-Nov-16 17:09N 46°19' W 002°22'0 0.1
2017-Nov-16 17:00N 46°19' W 002°22'0 0.0
2017-Nov-16 16:07N 46°19' W 002°22'0 0.0
2017-Nov-16 15:59N 46°19' W 002°22'0 0.0
2017-Nov-16 15:22N 46°19' W 002°22'0 0.1
2017-Nov-16 11:24N 46°19' W 002°23'2 1.4
2017-Nov-16 10:05N 46°18' W 002°21'2 7.1
2017-Nov-16 09:50N 46°19' W 002°22'3 8.9
2017-Nov-16 09:28N 46°23' W 002°21'7 8.5
2017-Nov-16 08:41N 46°29' W 002°22'2 8.6
2017-Nov-16 08:25N 46°31' W 002°23'4 8.6
2017-Nov-16 08:00N 46°35' W 002°23'4 8.7
2017-Nov-16 07:30N 46°39' W 002°25'4 8.5
2017-Nov-16 07:00N 46°43' W 002°26'4 8.8
2017-Nov-16 06:30N 46°48' W 002°25'5 9.1
2017-Nov-16 06:00N 46°52' W 002°24'5 9.2
2017-Nov-16 05:30N 46°57' W 002°24'4 8.9
2017-Nov-16 05:00N 47°01' W 002°21'2 4.3
2017-Nov-16 04:30N 47°02' W 002°18'0 0.1
2017-Nov-16 04:00N 47°01' W 002°18'0 0.0
2017-Nov-16 03:27N 47°01' W 002°18'0 0.0
2017-Nov-16 03:00N 47°01' W 002°18'0 0.0
2017-Nov-16 02:30N 47°01' W 002°18'0 0.0
2017-Nov-16 02:00N 47°01' W 002°18'0 0.0
2017-Nov-16 01:30N 47°01' W 002°18'0 0.0
2017-Nov-16 01:00N 47°01' W 002°18'0 0.0
2017-Nov-16 00:30N 47°01' W 002°18'0 0.0
2017-Nov-16 00:00N 47°01' W 002°18'0 0.0
2017-Nov-15 23:30N 47°01' W 002°18'0 0.0
2017-Nov-15 23:00N 47°01' W 002°18'0 0.0
2017-Nov-15 22:28N 47°01' W 002°18'0 0.0
2017-Nov-15 22:00N 47°01' W 002°18'0 0.0
2017-Nov-15 21:30N 47°01' W 002°18'0 0.0
2017-Nov-15 20:57N 47°01' W 002°18'0 0.0
2017-Nov-15 20:30N 47°01' W 002°18'0 0.0
2017-Nov-15 20:00N 47°01' W 002°18'0 0.0
2017-Nov-15 19:30N 47°01' W 002°18'0 0.0
2017-Nov-15 18:58N 47°01' W 002°18'0 0.0
2017-Nov-15 18:30N 47°01' W 002°18'0 0.0
2017-Nov-15 17:58N 47°01' W 002°18'0 0.0
2017-Nov-15 17:30N 47°01' W 002°18'0 0.0
2017-Nov-15 16:59N 47°01' W 002°18'0 0.0
2017-Nov-15 16:30N 47°01' W 002°18'0 0.0
2017-Nov-15 16:00N 47°01' W 002°18'0 0.0
2017-Nov-15 15:30N 47°01' W 002°18'0 0.0
2017-Nov-15 15:00N 47°01' W 002°18'0 0.0
2017-Nov-15 14:30N 47°01' W 002°18'0 0.0
2017-Nov-15 14:00N 47°01' W 002°18'0 0.0
2017-Nov-15 13:30N 47°01' W 002°18'0 0.0
2017-Nov-15 12:59N 47°01' W 002°18'0 0.0
2017-Nov-15 12:20N 47°01' W 002°18'0 0.0
2017-Nov-15 12:00N 47°01' W 002°18'0 0.0
2017-Nov-15 11:28N 47°01' W 002°18'0 0.0
2017-Nov-15 11:00N 47°01' W 002°18'0 0.0
2017-Nov-15 10:30N 47°01' W 002°18'0 0.0
2017-Nov-15 10:00N 47°01' W 002°18'0 0.0
2017-Nov-15 09:29N 47°01' W 002°18'0 0.0
2017-Nov-15 08:59N 47°01' W 002°18'0 0.0
2017-Nov-15 08:30N 47°01' W 002°18'0 0.0
2017-Nov-15 08:00N 47°01' W 002°18'0 0.0
2017-Nov-15 07:30N 47°01' W 002°18'0 0.0
2017-Nov-15 07:00N 47°01' W 002°18'0 0.0
2017-Nov-15 06:30N 47°01' W 002°18'0 0.0
2017-Nov-15 06:00N 47°01' W 002°18'0 0.0
2017-Nov-15 05:30N 47°01' W 002°18'0 0.0
2017-Nov-15 05:00N 47°01' W 002°18'0 0.0
2017-Nov-15 04:29N 47°01' W 002°18'0 0.0
2017-Nov-15 04:00N 47°01' W 002°18'0 0.0
2017-Nov-15 03:30N 47°01' W 002°18'0 0.0
2017-Nov-15 03:00N 47°01' W 002°18'0 0.0
2017-Nov-15 02:30N 47°01' W 002°18'0 0.0
2017-Nov-15 02:00N 47°01' W 002°18'0 0.0
2017-Nov-15 01:30N 47°01' W 002°18'0 0.0
2017-Nov-15 01:00N 47°01' W 002°18'0 0.0
2017-Nov-15 00:30N 47°01' W 002°18'0 0.0
2017-Nov-15 00:00N 47°01' W 002°18'0 0.0
2017-Nov-14 23:28N 47°01' W 002°18'0 0.0
2017-Nov-14 23:00N 47°01' W 002°18'0 0.0
2017-Nov-14 22:30N 47°01' W 002°18'0 0.0
2017-Nov-14 22:00N 47°01' W 002°18'0 0.0
2017-Nov-14 21:30N 47°01' W 002°18'0 0.0
2017-Nov-14 21:00N 47°01' W 002°18'0 0.0
2017-Nov-14 20:30N 47°01' W 002°18'0 0.0
2017-Nov-14 20:00N 47°01' W 002°18'0 0.0
2017-Nov-14 19:30N 47°01' W 002°18'0 0.0
2017-Nov-14 18:59N 47°01' W 002°18'0 0.0
2017-Nov-14 18:29N 47°01' W 002°18'0 0.0
2017-Nov-14 18:00N 47°01' W 002°18'  

Dump ship's entire track history